createdAt,value
2018-09-12T00:00:09.602Z,0.70
2018-09-12T00:02:37.926Z,0.83
2018-09-12T00:05:06.264Z,0.70
2018-09-12T00:07:34.594Z,0.70
2018-09-12T00:10:02.937Z,0.63
2018-09-12T00:12:31.278Z,1.10
2018-09-12T00:14:59.595Z,0.80
2018-09-12T00:17:27.941Z,0.80
2018-09-12T00:19:56.242Z,1.13
2018-09-12T00:22:24.607Z,0.73
2018-09-12T00:24:52.941Z,1.13
2018-09-12T00:27:21.246Z,0.60
2018-09-12T00:29:49.592Z,1.10
2018-09-12T00:32:17.906Z,1.03
2018-09-12T00:34:46.230Z,0.77
2018-09-12T00:37:14.543Z,1.03
2018-09-12T00:39:42.881Z,0.80
2018-09-12T00:42:11.193Z,0.60
2018-09-12T00:44:39.549Z,0.70
2018-09-12T00:47:07.858Z,0.80
2018-09-12T00:49:36.182Z,1.20
2018-09-12T00:52:04.478Z,0.83
2018-09-12T00:54:32.795Z,0.80
2018-09-12T00:57:01.097Z,0.70
2018-09-12T00:59:29.454Z,0.77
2018-09-12T01:01:57.771Z,0.93
2018-09-12T01:04:26.130Z,0.60
2018-09-12T01:06:54.979Z,1.10
2018-09-12T01:09:23.318Z,0.80
2018-09-12T01:11:51.665Z,0.83
2018-09-12T01:14:21.026Z,0.80
2018-09-12T01:16:53.610Z,0.87
2018-09-12T01:19:21.942Z,1.27
2018-09-12T01:21:50.266Z,1.00
2018-09-12T01:24:18.650Z,1.10
2018-09-12T01:26:46.974Z,0.97
2018-09-12T01:29:15.531Z,1.00
2018-09-12T01:31:44.014Z,0.90
2018-09-12T01:34:12.442Z,1.13
2018-09-12T01:36:41.058Z,1.20
2018-09-12T01:39:10.314Z,1.30
2018-09-12T01:41:38.725Z,1.20
2018-09-12T01:44:07.180Z,0.93
2018-09-12T01:46:35.573Z,1.27
2018-09-12T01:49:03.918Z,1.00
2018-09-12T01:51:32.230Z,1.07
2018-09-12T01:54:00.569Z,1.00
2018-09-12T01:56:28.903Z,0.90
2018-09-12T01:58:57.256Z,0.80
2018-09-12T02:01:25.558Z,1.10
2018-09-12T02:03:53.909Z,1.00
2018-09-12T02:06:22.223Z,1.03
2018-09-12T02:08:50.569Z,0.83
2018-09-12T02:11:18.904Z,1.33
2018-09-12T02:13:47.249Z,0.90
2018-09-12T02:16:15.554Z,0.90
2018-09-12T02:18:43.889Z,0.80
2018-09-12T02:21:12.197Z,1.00
2018-09-12T02:23:40.542Z,0.93
2018-09-12T02:26:08.862Z,0.70
2018-09-12T02:28:37.200Z,0.80
2018-09-12T02:31:05.949Z,0.83
2018-09-12T02:33:34.291Z,1.30
2018-09-12T02:36:07.938Z,0.80
2018-09-12T02:38:36.290Z,1.07
2018-09-12T02:41:04.610Z,0.80
2018-09-12T02:43:32.921Z,1.43
2018-09-12T02:46:01.282Z,1.03
2018-09-12T02:48:29.608Z,1.10
2018-09-12T02:50:57.956Z,1.20
2018-09-12T02:53:26.282Z,1.50
2018-09-12T02:55:55.042Z,2.57
2018-09-12T02:58:23.355Z,2.40
2018-09-12T03:00:51.694Z,2.03
2018-09-12T03:03:20.000Z,3.03
2018-09-12T03:05:48.329Z,2.90
2018-09-12T03:08:16.649Z,3.00
2018-09-12T03:10:45.000Z,4.33
2018-09-12T03:13:13.315Z,2.00
2018-09-12T03:15:41.707Z,1.87
2018-09-12T03:18:10.103Z,1.80
2018-09-12T03:20:38.521Z,3.47
2018-09-12T03:23:06.785Z,1.40
2018-09-12T03:25:35.143Z,1.97
2018-09-12T03:28:03.491Z,2.13
2018-09-12T03:30:31.834Z,2.93
2018-09-12T03:33:00.158Z,2.03
2018-09-12T03:35:28.493Z,1.50
2018-09-12T03:37:56.833Z,1.43
2018-09-12T03:40:25.212Z,1.30
2018-09-12T03:42:53.535Z,1.60
2018-09-12T03:45:21.889Z,3.30
2018-09-12T03:47:50.254Z,2.33
2018-09-12T03:50:18.562Z,1.30
2018-09-12T03:52:46.916Z,3.50
2018-09-12T03:55:15.261Z,2.23
2018-09-12T03:57:43.607Z,3.13
2018-09-12T04:00:11.943Z,2.40
2018-09-12T04:02:40.274Z,1.40
2018-09-12T04:05:08.757Z,1.40
2018-09-12T04:07:37.072Z,2.67
2018-09-12T04:10:05.460Z,2.17
2018-09-12T04:12:33.765Z,2.70
2018-09-12T04:15:02.098Z,1.63
2018-09-12T04:17:35.337Z,1.97
2018-09-12T04:20:03.898Z,1.93
2018-09-12T04:22:32.647Z,2.00
2018-09-12T04:25:00.998Z,1.93
2018-09-12T04:27:29.333Z,1.60
2018-09-12T04:29:57.666Z,2.43
2018-09-12T04:32:26.437Z,2.67
2018-09-12T04:34:54.894Z,4.10
2018-09-12T04:37:23.296Z,3.60
2018-09-12T04:39:51.626Z,3.10
2018-09-12T04:42:19.959Z,3.43
2018-09-12T04:44:48.470Z,1.70
2018-09-12T04:47:16.790Z,3.70
2018-09-12T04:49:45.143Z,2.80
2018-09-12T04:52:13.466Z,2.87
2018-09-12T04:54:41.793Z,1.93
2018-09-12T04:57:10.105Z,2.70
2018-09-12T04:59:38.459Z,3.00
2018-09-12T05:02:06.778Z,2.50
2018-09-12T05:04:35.100Z,3.47
2018-09-12T05:07:03.438Z,3.30
2018-09-12T05:09:31.742Z,4.10
2018-09-12T05:12:00.127Z,2.70
2018-09-12T05:14:28.502Z,1.70
2018-09-12T05:16:56.839Z,2.17
2018-09-12T05:19:25.157Z,1.67
2018-09-12T05:21:53.498Z,1.13
2018-09-12T05:24:21.811Z,2.17
2018-09-12T05:26:50.142Z,1.10
2018-09-12T05:29:18.494Z,1.63
2018-09-12T05:31:46.853Z,1.23
2018-09-12T05:34:15.170Z,3.43
2018-09-12T05:36:43.502Z,3.20
2018-09-12T05:39:11.863Z,2.00
2018-09-12T05:41:40.483Z,1.33
2018-09-12T05:44:08.805Z,4.63
2018-09-12T05:46:37.695Z,2.97
2018-09-12T05:49:06.074Z,3.00
2018-09-12T05:51:34.412Z,2.73
2018-09-12T05:54:02.732Z,3.37
2018-09-12T05:56:31.070Z,2.20
2018-09-12T05:58:59.394Z,4.23
2018-09-12T06:01:27.756Z,3.70
2018-09-12T06:03:56.086Z,3.43
2018-09-12T06:06:24.471Z,3.33
2018-09-12T06:08:52.758Z,3.07
2018-09-12T06:11:21.102Z,4.73
2018-09-12T06:13:49.468Z,2.80
2018-09-12T06:16:17.782Z,3.47
2018-09-12T06:18:46.093Z,3.20
2018-09-12T06:21:14.421Z,4.03
2018-09-12T06:23:42.731Z,3.43
2018-09-12T06:26:11.059Z,3.03
2018-09-12T06:28:39.370Z,5.47
2018-09-12T06:31:07.723Z,3.40
2018-09-12T06:33:36.030Z,3.20
2018-09-12T06:36:04.349Z,4.53
2018-09-12T06:38:32.770Z,4.70
2018-09-12T06:41:01.061Z,5.23
2018-09-12T06:43:29.550Z,4.43
2018-09-12T06:45:57.899Z,4.40
2018-09-12T06:48:26.211Z,2.93
2018-09-12T06:50:54.534Z,5.10
2018-09-12T06:53:22.869Z,3.97
2018-09-12T06:55:51.199Z,3.77
2018-09-12T06:58:19.510Z,4.80
2018-09-12T07:00:47.928Z,4.67
2018-09-12T07:03:16.194Z,2.47
2018-09-12T07:05:44.529Z,3.17
2018-09-12T07:08:12.852Z,3.07
2018-09-12T07:10:41.222Z,2.40
2018-09-12T07:13:09.528Z,5.13
2018-09-12T07:15:37.847Z,3.07
2018-09-12T07:18:06.189Z,2.73
2018-09-12T07:20:34.528Z,4.97
2018-09-12T07:23:02.869Z,2.40
2018-09-12T07:25:31.190Z,5.33
2018-09-12T07:27:59.538Z,3.07
2018-09-12T07:30:27.898Z,2.23
2018-09-12T07:32:56.245Z,3.80
2018-09-12T07:35:24.573Z,2.67
2018-09-12T07:37:52.918Z,4.47
2018-09-12T07:40:21.231Z,2.87
2018-09-12T07:42:49.578Z,2.93
2018-09-12T07:45:17.895Z,2.90
2018-09-12T07:47:46.255Z,3.50
2018-09-12T07:50:15.389Z,6.37
2018-09-12T07:52:43.715Z,2.90
2018-09-12T07:55:12.117Z,2.10
2018-09-12T07:57:40.381Z,2.40
2018-09-12T08:00:08.717Z,1.77
2018-09-12T08:02:37.085Z,5.23
2018-09-12T08:05:05.590Z,3.10
2018-09-12T08:07:33.889Z,4.93
2018-09-12T08:10:02.228Z,2.23
2018-09-12T08:12:30.575Z,3.03
2018-09-12T08:14:58.885Z,4.03
2018-09-12T08:17:27.219Z,3.23
2018-09-12T08:19:55.545Z,3.37
2018-09-12T08:22:23.901Z,2.50
2018-09-12T08:24:52.222Z,2.17
2018-09-12T08:27:20.542Z,2.73
2018-09-12T08:29:48.868Z,2.73
2018-09-12T08:32:17.213Z,4.13
2018-09-12T08:34:45.530Z,4.60
2018-09-12T08:37:13.867Z,3.33
2018-09-12T08:39:42.190Z,2.90
2018-09-12T08:42:10.598Z,3.73
2018-09-12T08:44:38.910Z,2.47
2018-09-12T08:47:07.256Z,2.27
2018-09-12T08:49:35.562Z,2.10
2018-09-12T08:52:03.918Z,2.40
2018-09-12T08:54:32.226Z,2.40
2018-09-12T08:57:00.588Z,2.40
2018-09-12T08:59:28.926Z,2.70
2018-09-12T09:01:57.247Z,2.60
2018-09-12T09:04:25.570Z,2.60
2018-09-12T09:06:53.897Z,2.07
2018-09-12T09:09:22.216Z,3.53
2018-09-12T09:11:50.594Z,3.10
2018-09-12T09:14:18.921Z,2.30
2018-09-12T09:16:47.304Z,2.80
2018-09-12T09:19:15.656Z,2.93
2018-09-12T09:21:43.973Z,2.47
2018-09-12T09:24:12.342Z,4.70
2018-09-12T09:26:40.657Z,2.53
2018-09-12T09:29:09.007Z,2.63
2018-09-12T09:31:37.342Z,3.13
2018-09-12T09:34:05.786Z,1.77
2018-09-12T09:36:34.089Z,1.93
2018-09-12T09:39:02.432Z,2.03
2018-09-12T09:41:30.746Z,1.90
2018-09-12T09:43:59.087Z,1.67
2018-09-12T09:46:27.421Z,1.83
2018-09-12T09:48:55.737Z,1.80
2018-09-12T09:51:24.042Z,1.83
2018-09-12T09:53:52.401Z,1.97
2018-09-12T09:56:20.698Z,1.70
2018-09-12T09:58:49.125Z,1.63
2018-09-12T10:02:23.410Z,1.37
2018-09-12T10:04:57.069Z,2.23
2018-09-12T10:07:30.916Z,1.80
2018-09-12T10:10:06.484Z,2.43
2018-09-12T10:12:35.528Z,2.07
2018-09-12T10:15:04.916Z,1.20
2018-09-12T10:17:34.074Z,1.60
2018-09-12T10:20:02.376Z,3.10
2018-09-12T10:22:31.278Z,1.40
2018-09-12T10:24:59.693Z,2.07
2018-09-12T10:27:28.174Z,1.97
2018-09-12T10:29:56.528Z,1.80
2018-09-12T10:32:24.865Z,1.77
2018-09-12T10:34:53.193Z,1.50
2018-09-12T10:37:21.501Z,1.40
2018-09-12T10:39:49.838Z,1.70
2018-09-12T10:42:18.162Z,1.73
2018-09-12T10:44:46.501Z,2.17
2018-09-12T10:47:14.826Z,1.50
2018-09-12T10:49:43.161Z,1.30
2018-09-12T10:52:11.488Z,1.20
2018-09-12T10:57:14.394Z,1.50
2018-09-12T11:02:17.331Z,1.23
2018-09-12T11:04:45.666Z,1.80
2018-09-12T11:07:13.985Z,1.20
2018-09-12T11:09:42.345Z,1.67
2018-09-12T11:12:10.670Z,2.30
2018-09-12T11:14:38.991Z,1.63
2018-09-12T11:17:07.302Z,2.37
2018-09-12T11:19:35.633Z,1.30
2018-09-12T11:22:03.957Z,1.60
2018-09-12T11:24:32.287Z,1.57
2018-09-12T11:27:00.622Z,2.27
2018-09-12T11:29:28.977Z,1.67
2018-09-12T11:31:57.285Z,1.40
2018-09-12T11:34:25.632Z,1.20
2018-09-12T11:36:53.969Z,2.03
2018-09-12T11:39:22.297Z,1.43
2018-09-12T11:41:50.607Z,1.53
2018-09-12T11:44:18.963Z,2.40
2018-09-12T11:46:47.269Z,1.50
2018-09-12T11:49:15.739Z,1.37
2018-09-12T11:51:43.995Z,2.03
2018-09-12T11:54:12.362Z,1.97
2018-09-12T11:56:40.680Z,1.67
2018-09-12T11:59:09.019Z,1.70
2018-09-12T12:01:37.405Z,2.00
2018-09-12T12:04:05.934Z,1.40
2018-09-12T12:06:34.315Z,1.80
2018-09-12T12:09:02.662Z,2.57
2018-09-12T12:11:30.996Z,2.27
2018-09-12T12:13:59.329Z,2.20
2018-09-12T12:16:27.698Z,2.07
2018-09-12T12:18:56.021Z,2.23
2018-09-12T12:21:24.346Z,1.60
2018-09-12T12:23:52.669Z,3.67
2018-09-12T12:26:21.426Z,2.67
2018-09-12T12:28:49.763Z,2.17
2018-09-12T12:31:18.074Z,1.73
2018-09-12T12:33:46.417Z,1.67
2018-09-12T12:36:14.723Z,1.93
2018-09-12T12:38:43.059Z,2.10
2018-09-12T12:41:11.439Z,1.77
2018-09-12T12:43:39.762Z,2.27
2018-09-12T12:46:08.214Z,1.53
2018-09-12T12:48:36.561Z,1.90
2018-09-12T12:51:04.886Z,1.50
2018-09-12T12:53:33.203Z,1.40
2018-09-12T12:56:01.534Z,2.70
2018-09-12T12:58:29.872Z,1.20
2018-09-12T13:00:58.305Z,1.77
2018-09-12T13:03:26.614Z,1.93
2018-09-12T13:05:54.974Z,1.40
2018-09-12T13:08:23.307Z,2.23
2018-09-12T13:10:51.659Z,1.80
2018-09-12T13:13:20.032Z,1.80
2018-09-12T13:15:48.370Z,1.35
2018-09-12T13:18:16.689Z,1.80
2018-09-12T13:20:45.035Z,2.97
2018-09-12T13:23:13.375Z,2.00
2018-09-12T13:25:41.768Z,1.47
2018-09-12T13:28:10.078Z,1.47
2018-09-12T13:30:38.409Z,1.43
2018-09-12T13:33:06.913Z,1.40
2018-09-12T13:35:35.553Z,1.40
2018-09-12T13:38:03.948Z,2.10
2018-09-12T13:40:32.276Z,1.40
2018-09-12T13:43:00.588Z,4.30
2018-09-12T13:45:28.967Z,1.95
2018-09-12T13:47:57.297Z,1.10
2018-09-12T13:50:25.624Z,1.42
2018-09-12T13:52:53.934Z,1.30
2018-09-12T13:55:22.281Z,2.45
2018-09-12T13:57:50.602Z,1.42
2018-09-12T14:00:18.998Z,2.08
2018-09-12T14:02:47.307Z,4.53
2018-09-12T14:05:15.637Z,1.70
2018-09-12T14:07:43.951Z,1.47
2018-09-12T14:10:12.305Z,2.55
2018-09-12T14:12:40.627Z,1.65
2018-09-12T14:15:08.969Z,1.20
2018-09-12T14:17:37.296Z,1.22
2018-09-12T14:20:05.641Z,1.32
2018-09-12T14:22:33.980Z,1.65
2018-09-12T14:25:02.331Z,1.65
2018-09-12T14:27:30.714Z,2.27
2018-09-12T14:29:59.071Z,1.20
2018-09-12T14:32:27.404Z,1.10
2018-09-12T14:34:55.745Z,1.30
2018-09-12T14:37:24.053Z,1.60
2018-09-12T14:39:52.386Z,2.80
2018-09-12T14:42:20.728Z,1.37
2018-09-12T14:44:49.070Z,1.50
2018-09-12T14:47:17.397Z,1.70
2018-09-12T14:49:45.725Z,2.33
2018-09-12T14:52:15.329Z,1.70
2018-09-12T14:54:43.661Z,2.10
2018-09-12T14:57:11.974Z,3.43
2018-09-12T14:59:40.309Z,3.00
2018-09-12T15:02:08.670Z,3.07
2018-09-12T15:04:36.997Z,3.67
2018-09-12T15:07:05.329Z,2.57
2018-09-12T15:09:33.645Z,3.60
2018-09-12T15:12:01.996Z,3.60
2018-09-12T15:14:30.334Z,4.33
2018-09-12T15:17:01.729Z,2.83
2018-09-12T15:19:30.066Z,3.93
2018-09-12T15:21:58.406Z,3.40
2018-09-12T15:24:26.733Z,2.47
2018-09-12T15:26:55.081Z,2.37
2018-09-12T15:29:23.434Z,3.57
2018-09-12T15:31:51.769Z,3.40
2018-09-12T15:34:20.104Z,2.90
2018-09-12T15:36:48.455Z,3.47
2018-09-12T15:39:16.767Z,1.93
2018-09-12T15:41:45.101Z,2.27
2018-09-12T15:44:13.421Z,2.43
2018-09-12T15:46:41.794Z,2.93
2018-09-12T15:49:10.099Z,2.27
2018-09-12T15:51:38.423Z,2.13
2018-09-12T15:54:06.785Z,2.53
2018-09-12T15:56:35.107Z,2.97
2018-09-12T15:59:03.441Z,2.23
2018-09-12T16:01:31.774Z,3.00
2018-09-12T16:04:00.101Z,2.83
2018-09-12T16:06:28.471Z,2.40
2018-09-12T16:08:56.809Z,1.83
2018-09-12T16:11:25.167Z,3.97
2018-09-12T16:13:53.499Z,1.97
2018-09-12T16:16:21.976Z,1.80
2018-09-12T16:18:50.292Z,1.47
2018-09-12T16:21:18.693Z,1.63
2018-09-12T16:23:47.012Z,1.57
2018-09-12T16:26:15.358Z,1.60
2018-09-12T16:28:43.670Z,1.17
2018-09-12T16:31:12.015Z,2.23
2018-09-12T16:33:40.329Z,1.20
2018-09-12T16:36:08.672Z,2.27
2018-09-12T16:38:40.008Z,2.10
2018-09-12T16:41:08.349Z,1.47
2018-09-12T16:43:36.672Z,1.83
2018-09-12T16:46:04.999Z,2.67
2018-09-12T16:48:33.341Z,3.00
2018-09-12T16:51:01.682Z,2.13
2018-09-12T16:53:29.993Z,1.97
2018-09-12T16:55:58.322Z,1.77
2018-09-12T16:58:26.666Z,2.27
2018-09-12T17:00:55.083Z,2.20
2018-09-12T17:03:23.398Z,1.70
2018-09-12T17:05:51.736Z,1.83
2018-09-12T17:08:20.046Z,1.70
2018-09-12T17:10:48.388Z,1.40
2018-09-12T17:13:16.707Z,1.50
2018-09-12T17:15:45.060Z,1.30
2018-09-12T17:18:13.393Z,2.03
2018-09-12T17:20:41.701Z,2.20
2018-09-12T17:23:10.037Z,1.83
2018-09-12T17:25:38.354Z,1.70
2018-09-12T17:28:06.687Z,1.50
2018-09-12T17:30:34.994Z,1.50
2018-09-12T17:33:03.317Z,1.03
2018-09-12T17:35:31.625Z,1.83
2018-09-12T17:37:59.971Z,1.23
2018-09-12T17:40:28.303Z,0.97
2018-09-12T17:42:56.646Z,2.40
2018-09-12T17:45:24.955Z,1.10
2018-09-12T17:47:53.297Z,0.83
2018-09-12T17:50:21.605Z,0.80
2018-09-12T17:52:49.934Z,0.60
2018-09-12T17:55:18.251Z,0.43
2018-09-12T17:57:46.591Z,0.73
2018-09-12T18:00:14.897Z,1.07
2018-09-12T18:02:43.244Z,0.73
2018-09-12T18:05:11.557Z,1.00
2018-09-12T18:07:39.885Z,1.17
2018-09-12T18:10:08.214Z,0.70
2018-09-12T18:12:36.544Z,1.33
2018-09-12T18:54:44.960Z,1.23
2018-09-12T18:57:13.293Z,1.80
2018-09-12T18:59:41.611Z,0.73
2018-09-12T19:02:09.961Z,1.07
2018-09-12T19:04:38.268Z,0.87
2018-09-12T19:07:07.080Z,0.90
2018-09-12T19:09:35.227Z,0.70
2018-09-12T19:12:03.593Z,0.50
2018-09-12T19:14:31.908Z,1.40
2018-09-12T19:17:00.232Z,0.50
2018-09-12T19:19:28.550Z,0.50
2018-09-12T19:21:56.901Z,0.50
2018-09-12T19:24:25.205Z,1.00
2018-09-12T19:26:53.588Z,0.50
2018-09-12T19:29:21.896Z,0.70
2018-09-12T19:31:50.242Z,0.80
2018-09-12T19:34:18.540Z,1.27
2018-09-12T19:36:46.849Z,1.70
2018-09-12T19:39:15.185Z,1.37
2018-09-12T19:41:43.551Z,1.03
2018-09-12T19:44:11.853Z,0.83
2018-09-12T19:46:40.177Z,0.50
2018-09-12T19:49:08.670Z,0.70
2018-09-12T19:51:36.984Z,0.93
2018-09-12T19:54:05.326Z,0.60
2018-09-12T19:56:33.646Z,0.87
2018-09-12T19:59:01.972Z,1.47
2018-09-12T20:01:30.280Z,0.63
2018-09-12T20:03:58.614Z,0.80
2018-09-12T20:06:26.935Z,1.77
2018-09-12T20:08:55.380Z,0.70
2018-09-12T20:11:23.710Z,0.90
2018-09-12T20:13:52.051Z,0.80
2018-09-12T20:16:20.378Z,0.90
2018-09-12T20:18:48.748Z,0.90
2018-09-12T20:21:17.068Z,2.03
2018-09-12T20:23:45.525Z,1.00
2018-09-12T20:26:13.732Z,0.70
2018-09-12T20:28:43.361Z,0.90
2018-09-12T20:31:11.668Z,1.10
2018-09-12T20:33:41.229Z,0.80
2018-09-12T20:36:09.546Z,0.83
2018-09-12T20:38:37.881Z,1.90
2018-09-12T20:41:06.289Z,0.60
2018-09-12T20:43:34.692Z,0.80
2018-09-12T20:46:03.127Z,0.73
2018-09-12T20:48:31.538Z,0.77
2018-09-12T20:50:59.897Z,0.73
2018-09-12T20:53:28.334Z,1.17
2018-09-12T20:55:56.641Z,1.20
2018-09-12T20:58:24.969Z,1.47
2018-09-12T21:00:53.280Z,1.37
2018-09-12T21:03:21.605Z,1.53
2018-09-12T21:05:49.913Z,1.23
2018-09-12T21:08:18.240Z,1.30
2018-09-12T21:10:46.609Z,1.30
2018-09-12T21:13:14.937Z,1.40
2018-09-12T21:15:43.250Z,2.40
2018-09-12T21:18:11.704Z,2.43
2018-09-12T21:20:40.001Z,5.07
2018-09-12T21:23:08.328Z,3.30
2018-09-12T21:25:36.643Z,2.40
2018-09-12T21:28:04.974Z,1.90
2018-09-12T21:30:33.314Z,2.60
2018-09-12T21:33:01.641Z,1.90
2018-09-12T21:35:29.956Z,3.80
2018-09-12T21:37:58.325Z,2.60
2018-09-12T21:40:26.641Z,1.60
2018-09-12T21:42:54.968Z,2.20
2018-09-12T21:45:23.297Z,1.93
2018-09-12T21:47:51.620Z,2.03
2018-09-12T21:50:19.950Z,2.20
2018-09-12T21:52:48.252Z,1.67
2018-09-12T21:55:16.580Z,2.43
2018-09-12T21:57:44.894Z,2.07
2018-09-12T22:00:13.233Z,1.87
2018-09-12T22:02:41.546Z,1.50
2018-09-12T22:05:09.872Z,1.70
2018-09-12T22:07:38.196Z,1.77
2018-09-12T22:10:06.545Z,1.90
2018-09-12T22:12:34.888Z,1.60
2018-09-12T22:15:03.216Z,1.40
2018-09-12T22:17:31.517Z,1.60
2018-09-12T22:19:59.845Z,1.60
2018-09-12T22:22:28.175Z,1.73
2018-09-12T22:24:56.505Z,2.13
2018-09-12T22:27:24.805Z,2.17
2018-09-12T22:29:53.129Z,1.80
2018-09-12T22:32:21.444Z,1.80
2018-09-12T22:34:49.772Z,1.60
2018-09-12T22:37:18.093Z,1.70
2018-09-12T22:39:46.426Z,1.40
2018-09-12T22:42:14.737Z,1.47
2018-09-12T22:44:43.071Z,1.43
2018-09-12T22:47:11.378Z,1.30
2018-09-12T22:49:39.704Z,1.30
2018-09-12T22:52:08.061Z,1.60
2018-09-12T22:54:36.407Z,1.70
2018-09-12T22:57:04.725Z,1.50
2018-09-12T22:59:33.048Z,1.30
2018-09-12T23:02:01.361Z,1.20
2018-09-12T23:04:29.689Z,1.07
2018-09-12T23:06:58.010Z,0.83
2018-09-12T23:09:26.346Z,0.70
2018-09-12T23:11:54.677Z,0.70
2018-09-12T23:14:23.001Z,0.70
2018-09-12T23:16:51.364Z,0.90
2018-09-12T23:19:19.677Z,0.70
2018-09-12T23:21:47.983Z,0.63
2018-09-12T23:24:16.319Z,0.70
2018-09-12T23:26:44.641Z,0.80
2018-09-12T23:29:13.001Z,0.53
2018-09-12T23:31:41.326Z,1.17
2018-09-12T23:34:09.661Z,0.60
2018-09-12T23:36:37.980Z,1.43
2018-09-12T23:39:09.250Z,0.50
2018-09-12T23:41:37.567Z,0.40
2018-09-12T23:44:06.917Z,0.50
2018-09-12T23:46:35.229Z,0.73
2018-09-12T23:49:03.577Z,0.40
2018-09-12T23:51:31.887Z,0.40
2018-09-12T23:54:00.227Z,0.40
2018-09-12T23:56:28.541Z,0.43
2018-09-12T23:58:56.937Z,0.40
